sensor_id;sensor_type;location;lat;lon;timestamp;P1;durP1;ratioP1;P2;durP2;ratioP2
18455;SDS011;9357;49.900;8.208;2023-02-15T00:00:19;160.80;;;36.22;;
18455;SDS011;9357;49.900;8.208;2023-02-15T00:01:52;133.70;;;34.03;;
18455;SDS011;9357;49.900;8.208;2023-02-15T00:03:24;127.88;;;34.45;;
18455;SDS011;9357;49.900;8.208;2023-02-15T00:04:57;201.35;;;33.97;;
18455;SDS011;9357;49.900;8.208;2023-02-15T00:06:29;179.32;;;36.15;;
18455;SDS011;9357;49.900;8.208;2023-02-15T00:08:03;153.65;;;35.95;;
18455;SDS011;9357;49.900;8.208;2023-02-15T00:09:36;152.73;;;35.30;;
18455;SDS011;9357;49.900;8.208;2023-02-15T00:11:08;122.40;;;34.25;;
18455;SDS011;9357;49.900;8.208;2023-02-15T00:12:43;206.98;;;36.22;;
18455;SDS011;9357;49.900;8.208;2023-02-15T00:14:16;152.60;;;35.05;;
18455;SDS011;9357;49.900;8.208;2023-02-15T00:15:49;101.70;;;35.15;;
18455;SDS011;9357;49.900;8.208;2023-02-15T00:17:22;140.27;;;39.65;;
18455;SDS011;9357;49.900;8.208;2023-02-15T00:18:55;104.70;;;37.60;;
18455;SDS011;9357;49.900;8.208;2023-02-15T00:20:27;156.77;;;35.47;;
18455;SDS011;9357;49.900;8.208;2023-02-15T00:21:59;134.82;;;34.40;;
18455;SDS011;9357;49.900;8.208;2023-02-15T00:23:33;140.02;;;33.60;;
18455;SDS011;9357;49.900;8.208;2023-02-15T00:25:06;137.60;;;33.72;;
18455;SDS011;9357;49.900;8.208;2023-02-15T00:26:39;85.40;;;31.23;;
18455;SDS011;9357;49.900;8.208;2023-02-15T00:28:13;106.25;;;32.65;;
18455;SDS011;9357;49.900;8.208;2023-02-15T00:29:46;162.90;;;37.80;;
18455;SDS011;9357;49.900;8.208;2023-02-15T00:31:19;172.25;;;38.97;;
18455;SDS011;9357;49.900;8.208;2023-02-15T00:32:51;250.13;;;38.67;;
18455;SDS011;9357;49.900;8.208;2023-02-15T00:34:25;169.23;;;34.05;;
18455;SDS011;9357;49.900;8.208;2023-02-15T00:36:00;219.18;;;36.05;;
18455;SDS011;9357;49.900;8.208;2023-02-15T00:37:32;175.32;;;31.23;;
18455;SDS011;9357;49.900;8.208;2023-02-15T00:39:07;135.77;;;31.55;;
18455;SDS011;9357;49.900;8.208;2023-02-15T00:40:39;180.30;;;35.50;;
18455;SDS011;9357;49.900;8.208;2023-02-15T00:42:12;161.70;;;36.72;;
18455;SDS011;9357;49.900;8.208;2023-02-15T00:43:44;164.48;;;39.88;;
18455;SDS011;9357;49.900;8.208;2023-02-15T00:45:17;164.70;;;38.00;;
18455;SDS011;9357;49.900;8.208;2023-02-15T00:46:50;248.65;;;35.42;;
18455;SDS011;9357;49.900;8.208;2023-02-15T00:48:23;206.85;;;35.00;;
18455;SDS011;9357;49.900;8.208;2023-02-15T00:49:55;199.43;;;34.28;;
18455;SDS011;9357;49.900;8.208;2023-02-15T00:51:28;159.88;;;34.15;;
18455;SDS011;9357;49.900;8.208;2023-02-15T00:53:01;161.52;;;33.25;;
18455;SDS011;9357;49.900;8.208;2023-02-15T00:54:35;163.05;;;33.30;;
18455;SDS011;9357;49.900;8.208;2023-02-15T00:56:09;168.85;;;35.22;;
18455;SDS011;9357;49.900;8.208;2023-02-15T00:57:42;132.35;;;32.33;;
18455;SDS011;9357;49.900;8.208;2023-02-15T00:59:14;215.85;;;36.28;;
18455;SDS011;9357;49.900;8.208;2023-02-15T01:00:47;182.05;;;32.92;;
18455;SDS011;9357;49.900;8.208;2023-02-15T01:02:20;140.50;;;31.52;;
18455;SDS011;9357;49.900;8.208;2023-02-15T01:03:53;157.60;;;32.83;;
18455;SDS011;9357;49.900;8.208;2023-02-15T01:05:25;125.15;;;32.88;;
18455;SDS011;9357;49.900;8.208;2023-02-15T01:06:57;207.68;;;33.55;;
18455;SDS011;9357;49.900;8.208;2023-02-15T01:08:30;174.65;;;32.10;;
18455;SDS011;9357;49.900;8.208;2023-02-15T01:10:04;140.65;;;30.60;;
18455;SDS011;9357;49.900;8.208;2023-02-15T01:11:37;123.22;;;29.42;;
18455;SDS011;9357;49.900;8.208;2023-02-15T01:13:10;112.72;;;30.00;;
18455;SDS011;9357;49.900;8.208;2023-02-15T01:14:43;122.93;;;28.98;;
18455;SDS011;9357;49.900;8.208;2023-02-15T01:16:16;118.45;;;29.98;;
18455;SDS011;9357;49.900;8.208;2023-02-15T01:17:49;146.20;;;31.65;;
18455;SDS011;9357;49.900;8.208;2023-02-15T01:19:24;125.28;;;30.30;;
18455;SDS011;9357;49.900;8.208;2023-02-15T01:20:56;136.70;;;31.05;;
18455;SDS011;9357;49.900;8.208;2023-02-15T01:22:28;137.52;;;31.15;;
18455;SDS011;9357;49.900;8.208;2023-02-15T01:24:01;156.55;;;30.00;;
18455;SDS011;9357;49.900;8.208;2023-02-15T01:25:35;124.05;;;28.25;;
18455;SDS011;9357;49.900;8.208;2023-02-15T01:27:07;129.13;;;29.80;;
18455;SDS011;9357;49.900;8.208;2023-02-15T01:28:40;197.70;;;30.23;;
18455;SDS011;9357;49.900;8.208;2023-02-15T01:30:13;84.75;;;27.60;;
18455;SDS011;9357;49.900;8.208;2023-02-15T01:31:47;132.90;;;29.45;;
18455;SDS011;9357;49.900;8.208;2023-02-15T01:33:20;146.00;;;31.88;;
18455;SDS011;9357;49.900;8.208;2023-02-15T01:34:52;102.72;;;28.67;;
18455;SDS011;9357;49.900;8.208;2023-02-15T01:36:25;336.20;;;37.50;;
18455;SDS011;9357;49.900;8.208;2023-02-15T01:37:57;308.95;;;35.67;;
18455;SDS011;9357;49.900;8.208;2023-02-15T01:39:30;115.47;;;28.10;;
18455;SDS011;9357;49.900;8.208;2023-02-15T01:41:04;263.20;;;33.92;;
18455;SDS011;9357;49.900;8.208;2023-02-15T01:42:55;121.18;;;28.20;;
18455;SDS011;9357;49.900;8.208;2023-02-15T01:44:47;366.63;;;35.33;;
18455;SDS011;9357;49.900;8.208;2023-02-15T01:46:23;251.70;;;31.63;;
18455;SDS011;9357;49.900;8.208;2023-02-15T01:47:59;250.77;;;32.83;;
18455;SDS011;9357;49.900;8.208;2023-02-15T01:49:36;352.80;;;36.03;;
18455;SDS011;9357;49.900;8.208;2023-02-15T01:51:12;188.98;;;30.67;;
18455;SDS011;9357;49.900;8.208;2023-02-15T01:52:46;363.60;;;37.58;;
18455;SDS011;9357;49.900;8.208;2023-02-15T01:54:23;356.85;;;38.00;;
18455;SDS011;9357;49.900;8.208;2023-02-15T01:56:00;370.35;;;36.53;;
18455;SDS011;9357;49.900;8.208;2023-02-15T01:57:37;371.13;;;36.80;;
18455;SDS011;9357;49.900;8.208;2023-02-15T01:59:12;288.05;;;34.22;;
18455;SDS011;9357;49.900;8.208;2023-02-15T02:00:47;351.95;;;36.45;;
18455;SDS011;9357;49.900;8.208;2023-02-15T02:02:20;186.18;;;28.85;;
18455;SDS011;9357;49.900;8.208;2023-02-15T02:03:56;112.88;;;28.88;;
18455;SDS011;9357;49.900;8.208;2023-02-15T02:05:34;363.13;;;36.92;;
18455;SDS011;9357;49.900;8.208;2023-02-15T02:07:06;320.23;;;34.47;;
18455;SDS011;9357;49.900;8.208;2023-02-15T02:08:39;397.60;;;36.90;;
18455;SDS011;9357;49.900;8.208;2023-02-15T02:10:13;454.85;;;40.78;;
18455;SDS011;9357;49.900;8.208;2023-02-15T02:11:48;307.33;;;32.53;;
18455;SDS011;9357;49.900;8.208;2023-02-15T02:13:22;190.20;;;28.52;;
18455;SDS011;9357;49.900;8.208;2023-02-15T02:14:55;245.52;;;31.77;;
18455;SDS011;9357;49.900;8.208;2023-02-15T02:16:28;290.40;;;32.92;;
18455;SDS011;9357;49.900;8.208;2023-02-15T02:18:14;204.02;;;31.10;;
18455;SDS011;9357;49.900;8.208;2023-02-15T02:19:57;294.75;;;32.13;;
18455;SDS011;9357;49.900;8.208;2023-02-15T02:24:16;190.98;;;28.45;;
18455;SDS011;9357;49.900;8.208;2023-02-15T02:26:24;315.92;;;31.35;;
18455;SDS011;9357;49.900;8.208;2023-02-15T02:28:23;140.18;;;26.83;;
18455;SDS011;9357;49.900;8.208;2023-02-15T02:32:47;94.55;;;25.30;;
18455;SDS011;9357;49.900;8.208;2023-02-15T02:34:32;127.75;;;26.73;;
18455;SDS011;9357;49.900;8.208;2023-02-15T02:36:15;300.83;;;32.97;;
18455;SDS011;9357;49.900;8.208;2023-02-15T02:37:56;263.65;;;30.60;;
18455;SDS011;9357;49.900;8.208;2023-02-15T02:39:39;159.20;;;28.30;;
18455;SDS011;9357;49.900;8.208;2023-02-15T02:41:17;84.20;;;26.92;;
18455;SDS011;9357;49.900;8.208;2023-02-15T02:42:55;216.63;;;30.90;;
18455;SDS011;9357;49.900;8.208;2023-02-15T02:44:34;223.32;;;30.27;;
18455;SDS011;9357;49.900;8.208;2023-02-15T02:46:15;370.15;;;34.05;;
18455;SDS011;9357;49.900;8.208;2023-02-15T02:47:53;262.75;;;32.30;;
18455;SDS011;9357;49.900;8.208;2023-02-15T02:49:31;157.93;;;28.58;;
18455;SDS011;9357;49.900;8.208;2023-02-15T02:51:04;407.13;;;36.67;;
18455;SDS011;9357;49.900;8.208;2023-02-15T02:52:38;263.05;;;31.15;;
18455;SDS011;9357;49.900;8.208;2023-02-15T02:54:12;109.70;;;26.00;;
18455;SDS011;9357;49.900;8.208;2023-02-15T02:55:46;316.42;;;32.35;;
18455;SDS011;9357;49.900;8.208;2023-02-15T02:57:21;258.35;;;31.95;;
18455;SDS011;9357;49.900;8.208;2023-02-15T02:58:56;101.63;;;26.50;;
18455;SDS011;9357;49.900;8.208;2023-02-15T03:00:36;185.70;;;27.55;;
18455;SDS011;9357;49.900;8.208;2023-02-15T03:02:15;364.33;;;33.92;;
18455;SDS011;9357;49.900;8.208;2023-02-15T03:03:52;326.13;;;31.27;;
18455;SDS011;9357;49.900;8.208;2023-02-15T03:05:29;154.65;;;28.45;;
18455;SDS011;9357;49.900;8.208;2023-02-15T03:07:03;107.25;;;26.02;;
18455;SDS011;9357;49.900;8.208;2023-02-15T03:08:40;121.65;;;28.70;;
18455;SDS011;9357;49.900;8.208;2023-02-15T03:10:16;155.90;;;28.35;;
18455;SDS011;9357;49.900;8.208;2023-02-15T03:11:51;130.85;;;26.85;;
18455;SDS011;9357;49.900;8.208;2023-02-15T03:13:25;122.82;;;27.42;;
18455;SDS011;9357;49.900;8.208;2023-02-15T03:15:00;244.98;;;30.52;;
18455;SDS011;9357;49.900;8.208;2023-02-15T03:16:35;183.57;;;28.90;;
18455;SDS011;9357;49.900;8.208;2023-02-15T03:18:08;257.40;;;28.73;;
18455;SDS011;9357;49.900;8.208;2023-02-15T03:19:42;207.40;;;29.10;;
18455;SDS011;9357;49.900;8.208;2023-02-15T03:21:18;263.25;;;30.00;;
18455;SDS011;9357;49.900;8.208;2023-02-15T03:22:54;159.45;;;27.00;;
18455;SDS011;9357;49.900;8.208;2023-02-15T03:24:31;241.70;;;30.98;;
18455;SDS011;9357;49.900;8.208;2023-02-15T03:26:07;184.38;;;27.75;;
18455;SDS011;9357;49.900;8.208;2023-02-15T03:27:42;193.43;;;28.42;;
18455;SDS011;9357;49.900;8.208;2023-02-15T03:29:19;211.15;;;29.33;;
18455;SDS011;9357;49.900;8.208;2023-02-15T03:30:54;126.68;;;25.70;;
18455;SDS011;9357;49.900;8.208;2023-02-15T03:32:30;83.15;;;24.88;;
18455;SDS011;9357;49.900;8.208;2023-02-15T03:34:06;92.90;;;25.33;;
18455;SDS011;9357;49.900;8.208;2023-02-15T03:35:45;114.78;;;26.13;;
18455;SDS011;9357;49.900;8.208;2023-02-15T03:37:23;98.80;;;23.88;;
18455;SDS011;9357;49.900;8.208;2023-02-15T03:39:02;104.72;;;22.80;;
18455;SDS011;9357;49.900;8.208;2023-02-15T03:40:38;82.18;;;24.45;;
18455;SDS011;9357;49.900;8.208;2023-02-15T03:42:33;171.02;;;26.27;;
18455;SDS011;9357;49.900;8.208;2023-02-15T03:44:11;187.73;;;26.60;;
18455;SDS011;9357;49.900;8.208;2023-02-15T03:45:48;96.55;;;23.90;;
18455;SDS011;9357;49.900;8.208;2023-02-15T03:47:26;129.82;;;24.55;;
18455;SDS011;9357;49.900;8.208;2023-02-15T03:49:02;128.73;;;23.38;;
18455;SDS011;9357;49.900;8.208;2023-02-15T03:50:39;101.32;;;22.90;;
18455;SDS011;9357;49.900;8.208;2023-02-15T03:52:31;116.03;;;23.92;;
18455;SDS011;9357;49.900;8.208;2023-02-15T03:54:07;105.90;;;23.38;;
18455;SDS011;9357;49.900;8.208;2023-02-15T03:55:40;133.20;;;24.55;;
18455;SDS011;9357;49.900;8.208;2023-02-15T03:57:14;110.28;;;22.75;;
18455;SDS011;9357;49.900;8.208;2023-02-15T03:59:06;121.57;;;23.65;;
18455;SDS011;9357;49.900;8.208;2023-02-15T04:00:57;214.57;;;25.77;;
18455;SDS011;9357;49.900;8.208;2023-02-15T04:02:52;83.07;;;22.13;;
18455;SDS011;9357;49.900;8.208;2023-02-15T04:04:39;87.95;;;22.52;;
18455;SDS011;9357;49.900;8.208;2023-02-15T04:06:19;106.20;;;23.95;;
18455;SDS011;9357;49.900;8.208;2023-02-15T04:07:53;106.20;;;22.42;;
18455;SDS011;9357;49.900;8.208;2023-02-15T04:09:26;81.60;;;21.83;;
18455;SDS011;9357;49.900;8.208;2023-02-15T04:11:16;118.07;;;22.55;;
18455;SDS011;9357;49.900;8.208;2023-02-15T04:12:48;98.03;;;24.52;;
18455;SDS011;9357;49.900;8.208;2023-02-15T04:14:21;103.28;;;22.98;;
18455;SDS011;9357;49.900;8.208;2023-02-15T04:16:11;112.25;;;23.58;;
18455;SDS011;9357;49.900;8.208;2023-02-15T04:17:44;130.85;;;23.80;;
18455;SDS011;9357;49.900;8.208;2023-02-15T04:19:16;88.53;;;22.92;;
18455;SDS011;9357;49.900;8.208;2023-02-15T04:21:06;79.40;;;22.88;;
18455;SDS011;9357;49.900;8.208;2023-02-15T04:22:58;153.70;;;25.05;;
18455;SDS011;9357;49.900;8.208;2023-02-15T04:24:48;101.47;;;22.60;;
18455;SDS011;9357;49.900;8.208;2023-02-15T04:26:39;100.43;;;22.60;;
18455;SDS011;9357;49.900;8.208;2023-02-15T04:28:12;109.43;;;22.20;;
18455;SDS011;9357;49.900;8.208;2023-02-15T04:29:44;171.20;;;26.60;;
18455;SDS011;9357;49.900;8.208;2023-02-15T04:31:17;124.30;;;24.83;;
18455;SDS011;9357;49.900;8.208;2023-02-15T04:32:50;64.18;;;21.58;;
18455;SDS011;9357;49.900;8.208;2023-02-15T04:34:23;87.07;;;23.27;;
18455;SDS011;9357;49.900;8.208;2023-02-15T04:35:56;116.43;;;24.33;;
18455;SDS011;9357;49.900;8.208;2023-02-15T04:37:29;77.95;;;22.55;;
18455;SDS011;9357;49.900;8.208;2023-02-15T04:39:03;146.02;;;23.95;;
18455;SDS011;9357;49.900;8.208;2023-02-15T04:40:36;151.88;;;24.08;;
18455;SDS011;9357;49.900;8.208;2023-02-15T04:42:09;85.90;;;23.25;;
18455;SDS011;9357;49.900;8.208;2023-02-15T04:43:41;113.43;;;23.13;;
18455;SDS011;9357;49.900;8.208;2023-02-15T04:45:14;86.47;;;22.58;;
18455;SDS011;9357;49.900;8.208;2023-02-15T04:46:46;94.15;;;23.42;;
18455;SDS011;9357;49.900;8.208;2023-02-15T04:48:19;127.53;;;23.77;;
18455;SDS011;9357;49.900;8.208;2023-02-15T04:49:52;87.55;;;22.95;;
18455;SDS011;9357;49.900;8.208;2023-02-15T04:51:27;195.68;;;26.42;;
18455;SDS011;9357;49.900;8.208;2023-02-15T04:53:00;118.50;;;24.48;;
18455;SDS011;9357;49.900;8.208;2023-02-15T04:54:34;99.18;;;23.13;;
18455;SDS011;9357;49.900;8.208;2023-02-15T04:56:06;130.55;;;23.77;;
18455;SDS011;9357;49.900;8.208;2023-02-15T04:57:38;96.38;;;23.00;;
18455;SDS011;9357;49.900;8.208;2023-02-15T04:59:11;157.73;;;25.35;;
18455;SDS011;9357;49.900;8.208;2023-02-15T05:00:44;76.72;;;22.67;;
18455;SDS011;9357;49.900;8.208;2023-02-15T05:02:17;121.68;;;23.17;;
18455;SDS011;9357;49.900;8.208;2023-02-15T05:03:50;73.35;;;22.25;;
18455;SDS011;9357;49.900;8.208;2023-02-15T05:05:23;80.28;;;22.65;;
18455;SDS011;9357;49.900;8.208;2023-02-15T05:06:56;70.65;;;22.70;;
18455;SDS011;9357;49.900;8.208;2023-02-15T05:08:28;68.18;;;21.70;;
18455;SDS011;9357;49.900;8.208;2023-02-15T05:10:02;60.63;;;21.17;;
18455;SDS011;9357;49.900;8.208;2023-02-15T05:11:35;69.25;;;21.60;;
18455;SDS011;9357;49.900;8.208;2023-02-15T05:13:06;66.35;;;21.67;;
18455;SDS011;9357;49.900;8.208;2023-02-15T05:14:39;98.15;;;21.48;;
18455;SDS011;9357;49.900;8.208;2023-02-15T05:16:12;92.72;;;21.33;;
18455;SDS011;9357;49.900;8.208;2023-02-15T05:17:45;64.40;;;20.70;;
18455;SDS011;9357;49.900;8.208;2023-02-15T05:19:18;58.33;;;20.25;;
18455;SDS011;9357;49.900;8.208;2023-02-15T05:20:49;63.33;;;21.17;;
18455;SDS011;9357;49.900;8.208;2023-02-15T05:22:22;68.95;;;21.55;;
18455;SDS011;9357;49.900;8.208;2023-02-15T05:23:55;120.68;;;22.88;;
18455;SDS011;9357;49.900;8.208;2023-02-15T05:25:29;62.55;;;20.00;;
18455;SDS011;9357;49.900;8.208;2023-02-15T05:27:19;60.53;;;20.92;;
18455;SDS011;9357;49.900;8.208;2023-02-15T05:29:10;83.93;;;21.65;;
18455;SDS011;9357;49.900;8.208;2023-02-15T05:30:43;69.95;;;18.85;;
18455;SDS011;9357;49.900;8.208;2023-02-15T05:32:16;63.67;;;19.55;;
18455;SDS011;9357;49.900;8.208;2023-02-15T05:33:49;49.08;;;19.52;;
18455;SDS011;9357;49.900;8.208;2023-02-15T05:35:20;61.67;;;20.17;;
18455;SDS011;9357;49.900;8.208;2023-02-15T05:36:53;53.70;;;20.05;;
18455;SDS011;9357;49.900;8.208;2023-02-15T05:38:26;60.70;;;19.42;;
18455;SDS011;9357;49.900;8.208;2023-02-15T05:39:59;84.25;;;20.90;;
18455;SDS011;9357;49.900;8.208;2023-02-15T05:41:33;60.08;;;18.92;;
18455;SDS011;9357;49.900;8.208;2023-02-15T05:43:05;69.70;;;19.88;;
18455;SDS011;9357;49.900;8.208;2023-02-15T05:44:38;61.65;;;18.52;;
18455;SDS011;9357;49.900;8.208;2023-02-15T05:46:11;59.00;;;19.75;;
18455;SDS011;9357;49.900;8.208;2023-02-15T05:47:43;51.30;;;18.58;;
18455;SDS011;9357;49.900;8.208;2023-02-15T05:49:16;48.90;;;19.63;;
18455;SDS011;9357;49.900;8.208;2023-02-15T05:50:56;57.05;;;20.02;;
18455;SDS011;9357;49.900;8.208;2023-02-15T05:52:30;62.40;;;19.13;;
18455;SDS011;9357;49.900;8.208;2023-02-15T05:54:03;53.47;;;19.60;;
18455;SDS011;9357;49.900;8.208;2023-02-15T05:55:36;86.28;;;20.13;;
18455;SDS011;9357;49.900;8.208;2023-02-15T05:57:11;70.25;;;19.73;;
18455;SDS011;9357;49.900;8.208;2023-02-15T05:58:44;55.67;;;19.92;;
18455;SDS011;9357;49.900;8.208;2023-02-15T06:00:17;49.95;;;19.40;;
18455;SDS011;9357;49.900;8.208;2023-02-15T06:01:50;53.88;;;18.85;;
18455;SDS011;9357;49.900;8.208;2023-02-15T06:03:23;63.42;;;20.05;;
18455;SDS011;9357;49.900;8.208;2023-02-15T06:04:57;72.35;;;19.77;;
18455;SDS011;9357;49.900;8.208;2023-02-15T06:06:29;95.88;;;19.52;;
18455;SDS011;9357;49.900;8.208;2023-02-15T06:08:02;93.38;;;21.20;;
18455;SDS011;9357;49.900;8.208;2023-02-15T06:09:36;56.53;;;18.80;;
18455;SDS011;9357;49.900;8.208;2023-02-15T06:11:09;50.28;;;18.58;;
18455;SDS011;9357;49.900;8.208;2023-02-15T06:12:43;48.25;;;19.08;;
18455;SDS011;9357;49.900;8.208;2023-02-15T06:14:16;50.92;;;18.10;;
18455;SDS011;9357;49.900;8.208;2023-02-15T06:15:49;59.03;;;19.17;;
18455;SDS011;9357;49.900;8.208;2023-02-15T06:17:22;62.17;;;18.75;;
18455;SDS011;9357;49.900;8.208;2023-02-15T06:18:54;55.25;;;18.33;;
18455;SDS011;9357;49.900;8.208;2023-02-15T06:20:27;53.28;;;18.20;;
18455;SDS011;9357;49.900;8.208;2023-02-15T06:22:00;58.55;;;18.10;;
18455;SDS011;9357;49.900;8.208;2023-02-15T06:23:33;48.42;;;17.55;;
18455;SDS011;9357;49.900;8.208;2023-02-15T06:25:05;48.33;;;17.52;;
18455;SDS011;9357;49.900;8.208;2023-02-15T06:26:40;42.95;;;15.98;;
18455;SDS011;9357;49.900;8.208;2023-02-15T06:28:14;49.00;;;17.45;;
18455;SDS011;9357;49.900;8.208;2023-02-15T06:29:47;45.05;;;17.70;;
18455;SDS011;9357;49.900;8.208;2023-02-15T06:31:20;45.53;;;17.73;;
18455;SDS011;9357;49.900;8.208;2023-02-15T06:32:53;49.75;;;17.30;;
18455;SDS011;9357;49.900;8.208;2023-02-15T06:34:26;45.55;;;17.17;;
18455;SDS011;9357;49.900;8.208;2023-02-15T06:35:58;48.58;;;18.55;;
18455;SDS011;9357;49.900;8.208;2023-02-15T06:37:31;50.20;;;18.52;;
18455;SDS011;9357;49.900;8.208;2023-02-15T06:39:04;47.50;;;17.23;;
18455;SDS011;9357;49.900;8.208;2023-02-15T06:40:37;46.58;;;16.77;;
18455;SDS011;9357;49.900;8.208;2023-02-15T06:42:10;70.25;;;18.25;;
18455;SDS011;9357;49.900;8.208;2023-02-15T06:43:44;48.85;;;17.58;;
18455;SDS011;9357;49.900;8.208;2023-02-15T06:45:17;51.25;;;18.00;;
18455;SDS011;9357;49.900;8.208;2023-02-15T06:46:49;48.55;;;16.67;;
18455;SDS011;9357;49.900;8.208;2023-02-15T06:48:22;49.92;;;17.05;;
18455;SDS011;9357;49.900;8.208;2023-02-15T06:49:55;60.90;;;17.52;;
18455;SDS011;9357;49.900;8.208;2023-02-15T06:51:28;46.67;;;17.35;;
18455;SDS011;9357;49.900;8.208;2023-02-15T06:53:01;75.03;;;18.38;;
18455;SDS011;9357;49.900;8.208;2023-02-15T06:54:34;42.63;;;17.77;;
18455;SDS011;9357;49.900;8.208;2023-02-15T06:56:07;51.10;;;17.42;;
18455;SDS011;9357;49.900;8.208;2023-02-15T06:57:41;51.50;;;16.65;;
18455;SDS011;9357;49.900;8.208;2023-02-15T06:59:15;42.55;;;16.85;;
18455;SDS011;9357;49.900;8.208;2023-02-15T07:00:48;42.00;;;16.65;;
18455;SDS011;9357;49.900;8.208;2023-02-15T07:02:20;59.42;;;17.75;;
18455;SDS011;9357;49.900;8.208;2023-02-15T07:03:53;52.20;;;17.98;;
18455;SDS011;9357;49.900;8.208;2023-02-15T07:05:26;42.97;;;17.05;;
18455;SDS011;9357;49.900;8.208;2023-02-15T07:07:01;43.58;;;17.45;;
18455;SDS011;9357;49.900;8.208;2023-02-15T07:08:34;39.80;;;16.25;;
18455;SDS011;9357;49.900;8.208;2023-02-15T07:10:08;46.05;;;17.08;;
18455;SDS011;9357;49.900;8.208;2023-02-15T07:11:41;46.13;;;15.75;;
18455;SDS011;9357;49.900;8.208;2023-02-15T07:13:31;41.00;;;15.60;;
18455;SDS011;9357;49.900;8.208;2023-02-15T07:15:06;40.55;;;16.92;;
18455;SDS011;9357;49.900;8.208;2023-02-15T07:16:40;44.33;;;16.10;;
18455;SDS011;9357;49.900;8.208;2023-02-15T07:18:13;43.92;;;16.40;;
18455;SDS011;9357;49.900;8.208;2023-02-15T07:19:45;41.08;;;15.73;;
18455;SDS011;9357;49.900;8.208;2023-02-15T07:21:18;39.92;;;15.73;;
18455;SDS011;9357;49.900;8.208;2023-02-15T07:22:51;49.10;;;14.95;;
18455;SDS011;9357;49.900;8.208;2023-02-15T07:24:24;54.75;;;16.92;;
18455;SDS011;9357;49.900;8.208;2023-02-15T07:25:56;38.13;;;15.25;;
18455;SDS011;9357;49.900;8.208;2023-02-15T07:27:30;41.35;;;15.25;;
18455;SDS011;9357;49.900;8.208;2023-02-15T07:29:03;48.47;;;16.25;;
18455;SDS011;9357;49.900;8.208;2023-02-15T07:30:37;37.13;;;15.85;;
18455;SDS011;9357;49.900;8.208;2023-02-15T07:32:11;53.28;;;16.25;;
18455;SDS011;9357;49.900;8.208;2023-02-15T07:33:44;83.32;;;17.08;;
18455;SDS011;9357;49.900;8.208;2023-02-15T07:35:17;56.33;;;17.65;;
18455;SDS011;9357;49.900;8.208;2023-02-15T07:36:50;81.90;;;18.65;;
18455;SDS011;9357;49.900;8.208;2023-02-15T07:38:25;48.50;;;17.20;;
18455;SDS011;9357;49.900;8.208;2023-02-15T07:39:58;56.25;;;17.42;;
18455;SDS011;9357;49.900;8.208;2023-02-15T07:41:31;48.33;;;16.05;;
18455;SDS011;9357;49.900;8.208;2023-02-15T07:43:04;44.75;;;16.23;;
18455;SDS011;9357;49.900;8.208;2023-02-15T07:44:36;41.55;;;15.88;;
18455;SDS011;9357;49.900;8.208;2023-02-15T07:46:11;54.60;;;16.35;;
18455;SDS011;9357;49.900;8.208;2023-02-15T07:47:46;60.55;;;17.48;;
18455;SDS011;9357;49.900;8.208;2023-02-15T07:49:19;61.20;;;18.50;;
18455;SDS011;9357;49.900;8.208;2023-02-15T07:50:52;45.58;;;17.48;;
18455;SDS011;9357;49.900;8.208;2023-02-15T07:52:25;43.50;;;17.15;;
18455;SDS011;9357;49.900;8.208;2023-02-15T07:53:58;52.47;;;16.98;;
18455;SDS011;9357;49.900;8.208;2023-02-15T07:55:31;54.60;;;17.08;;
18455;SDS011;9357;49.900;8.208;2023-02-15T07:57:03;46.55;;;17.58;;
18455;SDS011;9357;49.900;8.208;2023-02-15T07:58:36;45.08;;;16.45;;
18455;SDS011;9357;49.900;8.208;2023-02-15T08:00:26;55.50;;;17.48;;
18455;SDS011;9357;49.900;8.208;2023-02-15T08:02:02;46.20;;;16.63;;
18455;SDS011;9357;49.900;8.208;2023-02-15T08:03:34;57.83;;;17.00;;
18455;SDS011;9357;49.900;8.208;2023-02-15T08:05:07;51.78;;;17.85;;
18455;SDS011;9357;49.900;8.208;2023-02-15T08:06:40;41.65;;;17.23;;
18455;SDS011;9357;49.900;8.208;2023-02-15T08:08:13;47.58;;;17.17;;
18455;SDS011;9357;49.900;8.208;2023-02-15T08:10:01;48.70;;;16.85;;
18455;SDS011;9357;49.900;8.208;2023-02-15T08:11:34;48.17;;;17.88;;
18455;SDS011;9357;49.900;8.208;2023-02-15T08:13:07;45.78;;;17.23;;
18455;SDS011;9357;49.900;8.208;2023-02-15T08:14:40;41.80;;;17.27;;
18455;SDS011;9357;49.900;8.208;2023-02-15T08:16:13;49.47;;;17.98;;
18455;SDS011;9357;49.900;8.208;2023-02-15T08:17:47;61.58;;;18.77;;
18455;SDS011;9357;49.900;8.208;2023-02-15T08:19:20;49.35;;;18.63;;
18455;SDS011;9357;49.900;8.208;2023-02-15T08:20:54;40.22;;;16.65;;
18455;SDS011;9357;49.900;8.208;2023-02-15T08:22:27;51.10;;;16.73;;
18455;SDS011;9357;49.900;8.208;2023-02-15T08:24:00;36.85;;;16.00;;
18455;SDS011;9357;49.900;8.208;2023-02-15T08:25:34;35.85;;;15.02;;
18455;SDS011;9357;49.900;8.208;2023-02-15T08:27:07;46.65;;;16.83;;
18455;SDS011;9357;49.900;8.208;2023-02-15T08:28:41;48.08;;;17.10;;
18455;SDS011;9357;49.900;8.208;2023-02-15T08:30:14;43.72;;;17.15;;
18455;SDS011;9357;49.900;8.208;2023-02-15T08:31:47;43.72;;;16.85;;
18455;SDS011;9357;49.900;8.208;2023-02-15T08:33:21;40.65;;;15.73;;
18455;SDS011;9357;49.900;8.208;2023-02-15T08:34:54;44.80;;;16.13;;
18455;SDS011;9357;49.900;8.208;2023-02-15T08:36:27;42.65;;;15.93;;
18455;SDS011;9357;49.900;8.208;2023-02-15T08:38:02;43.55;;;16.73;;
18455;SDS011;9357;49.900;8.208;2023-02-15T08:39:35;48.42;;;16.92;;
18455;SDS011;9357;49.900;8.208;2023-02-15T08:41:09;47.78;;;16.27;;
18455;SDS011;9357;49.900;8.208;2023-02-15T08:42:41;74.75;;;18.55;;
18455;SDS011;9357;49.900;8.208;2023-02-15T08:44:15;58.65;;;18.08;;
18455;SDS011;9357;49.900;8.208;2023-02-15T08:45:49;48.25;;;17.30;;
18455;SDS011;9357;49.900;8.208;2023-02-15T08:47:22;58.22;;;18.20;;
18455;SDS011;9357;49.900;8.208;2023-02-15T08:48:56;65.43;;;18.30;;
18455;SDS011;9357;49.900;8.208;2023-02-15T08:50:28;54.45;;;17.98;;
18455;SDS011;9357;49.900;8.208;2023-02-15T08:52:01;49.67;;;17.40;;
18455;SDS011;9357;49.900;8.208;2023-02-15T08:53:34;53.75;;;18.35;;
18455;SDS011;9357;49.900;8.208;2023-02-15T08:55:07;49.88;;;17.63;;
18455;SDS011;9357;49.900;8.208;2023-02-15T08:56:40;61.95;;;19.05;;
18455;SDS011;9357;49.900;8.208;2023-02-15T08:58:14;67.78;;;18.08;;
18455;SDS011;9357;49.900;8.208;2023-02-15T08:59:46;99.10;;;20.50;;
18455;SDS011;9357;49.900;8.208;2023-02-15T09:01:21;75.45;;;19.35;;
18455;SDS011;9357;49.900;8.208;2023-02-15T09:02:55;51.10;;;19.02;;
18455;SDS011;9357;49.900;8.208;2023-02-15T09:04:29;67.10;;;19.15;;
18455;SDS011;9357;49.900;8.208;2023-02-15T09:06:01;80.70;;;19.55;;
18455;SDS011;9357;49.900;8.208;2023-02-15T09:07:34;74.50;;;20.00;;
18455;SDS011;9357;49.900;8.208;2023-02-15T09:09:07;74.40;;;20.33;;
18455;SDS011;9357;49.900;8.208;2023-02-15T09:10:40;50.10;;;19.10;;
18455;SDS011;9357;49.900;8.208;2023-02-15T09:12:13;53.10;;;20.17;;
18455;SDS011;9357;49.900;8.208;2023-02-15T09:13:46;52.25;;;19.83;;
18455;SDS011;9357;49.900;8.208;2023-02-15T09:15:18;52.72;;;19.70;;
18455;SDS011;9357;49.900;8.208;2023-02-15T09:16:51;46.25;;;19.55;;
18455;SDS011;9357;49.900;8.208;2023-02-15T09:18:25;50.90;;;19.85;;
18455;SDS011;9357;49.900;8.208;2023-02-15T09:19:59;63.22;;;20.75;;
18455;SDS011;9357;49.900;8.208;2023-02-15T09:21:32;44.92;;;19.77;;
18455;SDS011;9357;49.900;8.208;2023-02-15T09:23:05;52.78;;;19.30;;
18455;SDS011;9357;49.900;8.208;2023-02-15T09:24:49;45.15;;;19.23;;